12:23
Airports
Links
Donate
Help keep this website running!
PayPal
Bitcoin
METAR
KBOS 121154Z 12013KT 10SM OVC048 03/M01 A2983 RMK AO2 SLP101 T00331006 10033 20017 58029
Current Weather Conditions at KBOS
VFR 11:54:00 12-12-17
Automated station
Altimeter:29.83 hg
Temp:3.3°c 37°f
Dew point:-0.6°c 32°f
Wind:13 knots, 15 mph, 7 m/s, from 120°
Visibility:10.0 statute miles
4800(OVC) Overcast
Past METAR reports
VFR 10:54:00 12-12-17
Automated station
Altimeter:29.87 hg
Temp:2.8°c 36°f
Dew point:-1.7°c 30°f
Wind:7 knots, 8.1 mph, 4 m/s, from 120°
Visibility:10.0 statute miles
4300(OVC) Overcast
3300(BKN) Broken
KBOS 121054Z 12007KT 10SM BKN033 OVC043 03/M02 A2987 RMK A02 SLP116 T00281017
VFR 09:54:00 12-12-17
Automated station
Altimeter:29.89 hg
Temp:2.8°c 36°f
Dew point:-2.8°c 28°f
Wind:9 knots, 10.4 mph, 5 m/s, from 150°
Visibility:10.0 statute miles
4300(OVC) Overcast
3300(SCT) Scattered
KBOS 120954Z 15009KT 10SM SCT033 OVC043 03/M03 A2989 RMK AO2 SLP122 T00281028
VFR 08:54:00 12-12-17
Automated station
Altimeter:29.92 hg
Temp:2.2°c 36°f
Dew point:-3.9°c 27°f
Wind:4 knots, 4.6 mph, 2 m/s, from 130°
Visibility:10.0 statute miles
4900(OVC) Overcast
3700(SCT) Scattered
KBOS 120854Z 13004KT 10SM SCT037 OVC049 02/M04 A2992 RMK AO2 SLP130 T00221039 58023
VFR 07:54:00 12-12-17
Automated station
Altimeter:29.96 hg
Temp:2.2°c 36°f
Dew point:-3.9°c 27°f
Wind:0 knots, 0 mph, 0 m/s,
Variable direction
Visibility:10.0 statute miles
4900(OVC) Overcast
4300(BKN) Broken
KBOS 120754Z 00000KT 10SM BKN043 OVC049 02/M04 A2996 RMK AO2 SLP145 T00221039
VFR 06:54:00 12-12-17
Automated station
Altimeter:29.97 hg
Temp:1.7°c 34°f
Dew point:-4.4°c 25°f
Wind:6 knots, 6.9 mph, 3 m/s, from 140°
Visibility:10.0 statute miles
11000(OVC) Overcast
7500(SCT) Scattered
KBOS 120654Z 14006KT 10SM SCT075 OVC110 02/M04 A2997 RMK AO2 SLP147 T00171044
TAF
KBOS 121120Z 1212/1318 13007KT P6SM BKN035 OVC050 FM121500 15011KT 3SM -RA BR OVC020 FM122000 17009KT 1 1/2SM BR VCSH OVC015 FM130000 20007KT P6SM OVC020 FM130500 26008KT P6SM BKN040 FM131100 26012G23KT P6SM BKN025 FM131500 27016G28KT P6SM BKN035
Forecast at KBOS
12:00 12-12-17 to 15:00 12-12-17
Wind:7 Knots from 130°
Visibility:6.21 statute miles
3500BKN Broken
5000OVC Overcast
FM 15:00 12-12-17 to 20:00 12-12-17
-RA BR
Wind:11 Knots from 150°
Visibility:3.0 statute miles
2000OVC Overcast
FM 20:00 12-12-17 to 00:00 13-12-17
BR VCSH
Wind:9 Knots from 170°
Visibility:1.5 statute miles
1500OVC Overcast
FM 00:00 13-12-17 to 05:00 13-12-17
Wind:7 Knots from 200°
Visibility:6.21 statute miles
2000OVC Overcast
FM 05:00 13-12-17 to 11:00 13-12-17
Wind:8 Knots from 260°
Visibility:6.21 statute miles
4000BKN Broken
FM 11:00 13-12-17 to 15:00 13-12-17
Wind:12 Knots from 260°
Visibility:6.21 statute miles
2500BKN Broken
FM 15:00 13-12-17 to 18:00 13-12-17
Wind:16 Knots from 270°
Visibility:6.21 statute miles
3500BKN Broken